CheckWX is a tool to help pilots better visualize weather data.  It is not intended as a substitute for an official pre-flight weather briefing.

19:35:57 UTC

CYOJ METAR
High Level Airport
High Level, Alberta, Canada
Current

36 mins ago

CYOJ 191900Z 06002KT 1 1/4SM -SN OVC022 M13/M15 A2962 RMK SC8 SLP069
Observed
Feb-19 @ 19:00 UTC
Wind
  • 060° at 2 KTS
Visibility
1 1/4 SM
Flight Rules
IFR
Conditions
Light Snow
Cloud Levels
  • Overcast at 2,200' AGL
Temperature
-13°C / 9°F
Dewpoint
-15°C / 5°F
Humidity
85%
Altimeter
29.62" Hg
Pressure
1006.9 hPa
Previous

1 hour ago

CYOJ 191821Z VRB02KT 2 1/2SM -SN OVC030 M13/M16 A2962 RMK SC8 SLP068
Observed
Feb-19 @ 18:21 UTC
Wind
  • Variable at 2 KTS
Visibility
2 1/2 SM
Flight Rules
IFR
Conditions
Light Snow
Cloud Levels
  • Overcast at 3,000' AGL
Temperature
-13°C / 9°F
Dewpoint
-16°C / 3°F
Humidity
78%
Altimeter
29.62" Hg
Pressure
1006.8 hPa
Previous

2 hours ago

CYOJ 191800Z 00000KT 3SM -SN BKN027 OVC039 M14/M16 A2962 RMK SC5SC3 SLP067
Observed
Feb-19 @ 18:00 UTC
Visibility
3 SM
Flight Rules
MVFR
Conditions
Light Snow
Cloud Levels
  • Broken at 2,700' AGL
  • Overcast at 3,900' AGL
Temperature
-14°C / 7°F
Dewpoint
-16°C / 3°F
Humidity
85%
Altimeter
29.62" Hg
Pressure
1006.7 hPa